Time;durP1;ratioP1;P1;durP2;ratioP2;P2;SDS_P1;SDS_P2;PMS_P1;PMS_P2;Temp;Humidity;BMP_temperature;BMP_pressure;BME280_temperature;BME280_humidity;BME280_pressure;Samples;Min_cycle;Max_cycle;Signal;HPM_P1;HPM_P2
2022/08/04 00:02:55;;;;;;;;;;;;;;;18.38;61.08;99612.81;5155597;27;19927;-82
2022/08/04 00:05:25;;;;;;;;;;;;;;;18.31;61.46;99617.75;5154901;27;19927;-81
2022/08/04 00:08:01;;;;;;;;;;;;;;;18.28;61.59;99620.22;5155248;27;19926;-81
2022/08/04 00:10:29;;;;;;;;;;;;;;;18.33;61.60;99620.19;5154970;27;20335;-81
2022/08/04 00:12:56;;;;;;;;;;;;;;;18.28;61.63;99626.50;5136688;27;19927;-82
2022/08/04 00:15:23;;;;;;;;;;;;;;;18.24;61.70;99614.50;5136462;27;19962;-82
2022/08/04 00:17:56;;;;;;;;;;;;;;;18.22;62.17;99616.69;5154849;27;19926;-81
2022/08/04 00:20:23;;;;;;;;;;;;;;;18.19;62.33;99609.88;5154626;27;20029;-80
2022/08/04 00:22:51;;;;;;;;;;;;;;;18.16;62.21;99618.63;5136532;27;19927;-81
2022/08/04 00:25:18;;;;;;;;;;;;;;;18.15;62.08;99616.16;5154426;27;19931;-81
2022/08/04 00:27:45;;;;;;;;;;;;;;;18.15;62.17;99616.16;5154502;27;19930;-80
2022/08/04 00:30:12;;;;;;;;;;;;;;;18.15;61.98;99616.16;5136263;27;19927;-81
2022/08/04 00:32:42;;;;;;;;;;;;;;;18.18;61.77;99619.19;5154744;27;19987;-81
2022/08/04 00:35:12;;;;;;;;;;;;;;;18.19;61.76;99619.97;5154349;27;19931;-81
2022/08/04 00:37:39;;;;;;;;;;;;;;;18.19;61.98;99618.06;5135436;27;19927;-81
2022/08/04 00:40:10;;;;;;;;;;;;;;;18.18;61.84;99619.19;5133385;27;19972;-81
2022/08/04 00:42:41;;;;;;;;;;;;;;;18.14;61.97;99620.81;5133608;27;20059;-81
2022/08/04 00:45:31;;;;;;;;;;;;;;;18.12;62.15;99622.19;5117489;27;19967;-82
2022/08/04 00:48:38;;;;;;;;;;;;;;;18.12;62.05;99623.00;5133199;27;20401;-81
2022/08/04 00:51:11;;;;;;;;;;;;;;;18.14;62.00;99628.19;5133509;27;20305;-81
2022/08/04 00:54:05;;;;;;;;;;;;;;;18.25;61.46;99627.03;5114247;27;19935;-82
2022/08/04 00:56:38;;;;;;;;;;;;;;;18.29;61.23;99638.25;5130256;27;19927;-81
2022/08/04 00:59:05;;;;;;;;;;;;;;;18.31;61.14;99639.59;5133683;27;20049;-81
2022/08/04 01:01:47;;;;;;;;;;;;;;;18.35;61.02;99632.47;5133446;27;19927;-82
2022/08/04 01:04:16;;;;;;;;;;;;;;;18.41;60.88;99641.47;5115072;27;19931;-81
2022/08/04 01:07:06;;;;;;;;;;;;;;;18.42;60.78;99643.09;5116217;27;19927;-81
2022/08/04 01:09:43;;;;;;;;;;;;;;;18.43;60.60;99639.25;5133313;27;19968;-81
2022/08/04 01:12:21;;;;;;;;;;;;;;;18.39;60.44;99638.19;5133185;27;19928;-81
2022/08/04 01:14:56;;;;;;;;;;;;;;;18.40;60.35;99645.28;5114831;27;19928;-81
2022/08/04 01:17:24;;;;;;;;;;;;;;;18.42;60.27;99643.91;5132858;27;19927;-80
2022/08/04 01:19:54;;;;;;;;;;;;;;;18.35;60.28;99643.38;5114967;27;19973;-81
2022/08/04 01:22:28;;;;;;;;;;;;;;;18.29;60.55;99640.97;5114818;27;19933;-81
2022/08/04 01:25:14;;;;;;;;;;;;;;;18.26;60.40;99644.28;5081054;27;19992;-81
2022/08/04 01:27:57;;;;;;;;;;;;;;;18.18;60.57;99649.22;5132919;27;19927;-82
2022/08/04 01:30:25;;;;;;;;;;;;;;;18.04;60.71;99629.06;5132606;27;19999;-82
2022/08/04 01:33:08;;;;;;;;;;;;;;;18.15;60.56;99648.94;5132552;27;19928;-81
2022/08/04 01:35:35;;;;;;;;;;;;;;;18.12;60.76;99644.84;5114806;27;19927;-82
2022/08/04 01:38:16;;;;;;;;;;;;;;;18.10;60.77;99644.31;5132527;27;19928;-81
2022/08/04 01:40:49;;;;;;;;;;;;;;;18.10;60.67;99640.75;5132629;27;20013;-81
2022/08/04 01:43:19;;;;;;;;;;;;;;;18.09;60.76;99648.16;5098103;28;19927;-80
2022/08/04 01:45:50;;;;;;;;;;;;;;;18.06;60.63;99651.44;5132697;27;19927;-80
2022/08/04 01:48:17;;;;;;;;;;;;;;;18.02;60.76;99655.81;5128466;27;20246;-79
2022/08/04 01:50:44;;;;;;;;;;;;;;;18.00;60.97;99655.28;5110357;28;19928;-80
2022/08/04 01:53:20;;;;;;;;;;;;;;;18.01;60.70;99653.38;5132581;28;20363;-82
2022/08/04 01:55:48;;;;;;;;;;;;;;;18.05;60.87;99655.25;5133066;28;20347;-82
2022/08/04 01:58:21;;;;;;;;;;;;;;;18.08;60.78;99657.44;5116053;28;19928;-81
2022/08/04 02:01:01;;;;;;;;;;;;;;;18.13;60.69;99660.16;5114615;28;19931;-81
2022/08/04 02:03:35;;;;;;;;;;;;;;;18.15;60.39;99652.53;5115251;27;20351;-82
2022/08/04 02:06:27;;;;;;;;;;;;;;;18.16;60.54;99656.06;5136460;27;19933;-81
2022/08/04 02:08:57;;;;;;;;;;;;;;;18.15;60.57;99660.72;5136918;27;19927;-82
2022/08/04 02:11:24;;;;;;;;;;;;;;;18.16;60.51;99656.88;5136408;27;19931;-81
2022/08/04 02:14:39;;;;;;;;;;;;;;;18.18;60.61;99651.13;5118088;27;19927;-82
2022/08/04 02:17:07;;;;;;;;;;;;;;;18.17;60.56;99654.94;5136342;27;19927;-81
2022/08/04 02:19:52;;;;;;;;;;;;;;;18.19;60.38;99664.50;5118389;27;20119;-81
2022/08/04 02:22:20;;;;;;;;;;;;;;;18.21;60.27;99656.03;5136418;27;19941;-81
2022/08/04 02:24:58;;;;;;;;;;;;;;;18.26;60.27;99658.75;5136241;27;19927;-81
2022/08/04 02:27:28;;;;;;;;;;;;;;;18.28;60.44;99658.44;5136361;27;20012;-81
2022/08/04 02:30:15;;;;;;;;;;;;;;;18.34;60.23;99655.44;5136223;27;20022;-80
2022/08/04 02:32:44;;;;;;;;;;;;;;;18.37;60.19;99652.13;5136308;27;19927;-80
2022/08/04 02:35:13;;;;;;;;;;;;;;;18.38;60.10;99661.97;5135636;27;19973;-81
2022/08/04 02:37:48;;;;;;;;;;;;;;;18.42;60.08;99662.22;5117311;27;20389;-81
2022/08/04 02:40:18;;;;;;;;;;;;;;;18.46;60.13;99666.06;5117574;27;19931;-81
2022/08/04 02:42:45;;;;;;;;;;;;;;;18.52;60.06;99658.63;5117642;27;19927;-81
2022/08/04 02:45:12;;;;;;;;;;;;;;;18.57;59.99;99667.63;5135609;27;19934;-81
2022/08/04 02:47:40;;;;;;;;;;;;;;;18.63;59.91;99658.31;5135710;27;19966;-81
2022/08/04 02:50:32;;;;;;;;;;;;;;;18.70;59.84;99662.63;5120878;27;19931;-81
2022/08/04 02:52:59;;;;;;;;;;;;;;;18.76;60.03;99669.72;5117654;27;20378;-80
2022/08/04 02:55:26;;;;;;;;;;;;;;;18.79;59.92;99675.47;5116921;27;19966;-80
2022/08/04 02:57:53;;;;;;;;;;;;;;;18.85;60.12;99670.78;5100715;27;19992;-80
2022/08/04 03:00:20;;;;;;;;;;;;;;;18.91;60.11;99668.81;5117079;27;19935;-80
2022/08/04 03:02:55;;;;;;;;;;;;;;;18.97;59.84;99671.25;5117197;27;20313;-81
2022/08/04 03:05:27;;;;;;;;;;;;;;;19.03;59.60;99672.84;5117058;27;19927;-80
2022/08/04 03:07:57;;;;;;;;;;;;;;;19.08;59.73;99674.72;5117750;27;20354;-81
2022/08/04 03:10:42;;;;;;;;;;;;;;;19.16;59.52;99674.13;5135064;27;20023;-81
2022/08/04 03:13:14;;;;;;;;;;;;;;;19.23;59.27;99679.28;5134930;27;20421;-82
2022/08/04 03:15:50;;;;;;;;;;;;;;;19.34;59.03;99680.00;5134341;27;19927;-81
2022/08/04 03:18:35;;;;;;;;;;;;;;;19.38;58.84;99681.88;5117099;27;19931;-81
2022/08/04 03:21:26;;;;;;;;;;;;;;;19.42;58.68;99682.97;5135071;27;19980;-81
2022/08/04 03:24:04;;;;;;;;;;;;;;;19.53;58.54;99683.69;5117444;27;19927;-80
2022/08/04 03:26:49;;;;;;;;;;;;;;;19.64;58.44;99682.47;5134868;27;19927;-80
2022/08/04 03:29:25;;;;;;;;;;;;;;;19.75;58.13;99679.66;5134884;27;19931;-81
2022/08/04 03:32:21;;;;;;;;;;;;;;;19.84;58.04;99686.16;5135144;27;19927;-80
2022/08/04 03:34:48;;;;;;;;;;;;;;;19.91;57.96;99684.72;5134887;27;19949;-80
2022/08/04 03:37:51;;;;;;;;;;;;;;;20.01;57.71;99685.72;5134807;27;19980;-82
2022/08/04 03:40:18;;;;;;;;;;;;;;;20.09;57.44;99682.34;5050593;28;19940;-81
2022/08/04 03:42:45;;;;;;;;;;;;;;;20.15;57.56;99689.38;5053284;28;20030;-81
2022/08/04 03:45:15;;;;;;;;;;;;;;;20.20;57.26;99686.56;5061846;28;19935;-81
2022/08/04 03:48:07;;;;;;;;;;;;;;;20.28;57.17;99693.34;5057488;28;20028;-80
2022/08/04 03:50:40;;;;;;;;;;;;;;;20.36;57.01;99695.47;5037442;28;19929;-81
2022/08/04 03:53:19;;;;;;;;;;;;;;;20.44;56.82;99697.53;5057289;28;20002;-81
2022/08/04 03:55:58;;;;;;;;;;;;;;;20.50;56.63;99695.56;5056384;28;19929;-81
2022/08/04 03:58:44;;;;;;;;;;;;;;;20.55;56.75;99699.06;5059482;28;19954;-82
2022/08/04 04:01:31;;;;;;;;;;;;;;;20.62;56.65;99704.19;5059685;28;20008;-80
2022/08/04 04:04:47;;;;;;;;;;;;;;;20.74;56.36;99701.03;5032684;28;19968;-82
2022/08/04 04:07:38;;;;;;;;;;;;;;;20.83;56.47;99702.00;5059976;28;19935;-81
2022/08/04 04:10:08;;;;;;;;;;;;;;;20.91;56.03;99697.78;5070032;28;19998;-81
2022/08/04 04:12:44;;;;;;;;;;;;;;;20.99;55.97;99702.63;5051734;28;19935;-82
2022/08/04 04:15:18;;;;;;;;;;;;;;;21.09;55.67;99701.63;5142866;27;19927;-80
2022/08/04 04:17:58;;;;;;;;;;;;;;;21.18;55.47;99705.34;5110536;27;19927;-80
2022/08/04 04:20:43;;;;;;;;;;;;;;;21.24;55.59;99703.31;5107300;27;20022;-80
2022/08/04 04:23:28;;;;;;;;;;;;;;;21.36;55.29;99706.44;5145413;27;20026;-79
2022/08/04 04:26:10;;;;;;;;;;;;;;;21.43;54.96;99706.91;5140565;27;20485;-78
2022/08/04 04:28:44;;;;;;;;;;;;;;;21.49;54.86;99705.69;5137627;27;20390;-80
2022/08/04 04:31:19;;;;;;;;;;;;;;;21.56;54.42;99706.13;5133983;27;19989;-79
2022/08/04 04:34:01;;;;;;;;;;;;;;;21.66;54.26;99696.91;4780650;27;10000067;-83
2022/08/04 04:36:43;;;;;;;;;;;;;;;21.76;53.77;99706.91;5144946;27;19927;-81
2022/08/04 04:39:10;;;;;;;;;;;;;;;21.83;53.68;99708.13;5111589;27;19927;-80
2022/08/04 04:41:40;;;;;;;;;;;;;;;21.90;53.45;99710.47;5111283;27;19939;-80
2022/08/04 04:44:13;;;;;;;;;;;;;;;21.98;53.58;99707.06;5139174;27;20402;-80
2022/08/04 04:47:03;;;;;;;;;;;;;;;22.11;53.19;99713.69;5150197;27;20003;-81
2022/08/04 04:49:51;;;;;;;;;;;;;;;22.23;52.89;99707.69;5028895;28;19929;-79
2022/08/04 04:52:54;;;;;;;;;;;;;;;22.33;52.22;99720.44;5026781;28;20107;-81
2022/08/04 04:55:25;;;;;;;;;;;;;;;22.41;51.78;99717.00;5039987;28;20355;-82
2022/08/04 04:57:55;;;;;;;;;;;;;;;22.49;52.17;99719.81;5044182;28;20035;-80
2022/08/04 05:00:23;;;;;;;;;;;;;;;22.56;51.87;99727.69;5028855;28;19972;-80
2022/08/04 05:02:50;;;;;;;;;;;;;;;22.67;51.93;99722.78;5044622;28;19960;-79
2022/08/04 05:05:21;;;;;;;;;;;;;;;22.75;51.84;99724.78;5044959;28;20023;-79
2022/08/04 05:08:01;;;;;;;;;;;;;;;22.84;51.48;99727.63;5045381;28;20014;-79
2022/08/04 05:11:22;;;;;;;;;;;;;;;22.98;51.18;99728.44;5045638;28;19929;-81
2022/08/04 05:13:52;;;;;;;;;;;;;;;23.00;51.08;99726.19;5028398;28;19932;-80
2022/08/04 05:17:08;;;;;;;;;;;;;;;23.09;50.88;99723.50;5044388;28;20028;-77
2022/08/04 05:19:52;;;;;;;;;;;;;;;23.11;50.57;99716.56;5003210;28;19936;-80
2022/08/04 05:22:35;;;;;;;;;;;;;;;23.17;50.30;99720.03;5027412;28;19976;-81
2022/08/04 05:25:06;;;;;;;;;;;;;;;23.22;49.60;99719.94;5043698;28;19929;-80
2022/08/04 05:27:36;;;;;;;;;;;;;;;23.25;49.46;99719.28;5064645;28;19950;-79
2022/08/04 05:30:06;;;;;;;;;;;;;;;23.26;49.04;99718.16;5069448;28;20461;-81
2022/08/04 05:32:57;;;;;;;;;;;;;;;23.35;48.79;99715.50;5064101;28;19929;-80
2022/08/04 05:35:45;;;;;;;;;;;;;;;23.47;48.54;99714.91;5079958;28;20429;-81
2022/08/04 05:38:35;;;;;;;;;;;;;;;23.62;48.44;99710.97;5063184;28;19948;-79
2022/08/04 05:41:05;;;;;;;;;;;;;;;23.75;48.08;99719.19;5063116;28;19935;-81
2022/08/04 05:43:32;;;;;;;;;;;;;;;23.79;47.83;99700.88;5064417;28;19928;-80
2022/08/04 05:45:59;;;;;;;;;;;;;;;23.89;46.50;99713.59;5047682;28;20035;-80
2022/08/04 05:48:26;;;;;;;;;;;;;;;23.98;46.31;99717.22;5055637;28;19928;-81
2022/08/04 05:50:53;;;;;;;;;;;;;;;24.08;46.13;99710.63;5097743;28;20416;-81
2022/08/04 05:53:26;;;;;;;;;;;;;;;24.21;46.12;99720.72;5094240;28;20413;-83
2022/08/04 05:55:53;;;;;;;;;;;;;;;24.38;45.94;99721.91;5093362;28;20676;-81
2022/08/04 05:58:25;;;;;;;;;;;;;;;24.51;45.33;99722.97;5130473;27;20692;-80
2022/08/04 06:00:52;;;;;;;;;;;;;;;24.50;45.21;99722.16;5119503;28;19927;-81
2022/08/04 06:03:22;;;;;;;;;;;;;;;24.54;44.65;99723.16;5112296;27;20321;-81
2022/08/04 06:05:49;;;;;;;;;;;;;;;24.56;44.65;99720.88;5119405;28;20726;-80
2022/08/04 06:08:22;;;;;;;;;;;;;;;24.67;44.66;99717.84;5131380;28;20305;-81
2022/08/04 06:10:53;;;;;;;;;;;;;;;24.69;44.78;99721.06;5132409;27;19934;-80
2022/08/04 06:13:24;;;;;;;;;;;;;;;24.80;44.26;99725.97;5137950;27;19942;-82
2022/08/04 06:16:12;;;;;;;;;;;;;;;24.88;43.94;99716.88;5128032;27;19927;-80
2022/08/04 06:19:00;;;;;;;;;;;;;;;24.97;43.72;99724.38;5116573;27;19931;-80
2022/08/04 06:21:48;;;;;;;;;;;;;;;25.00;43.35;99719.00;5128410;27;19931;-81
2022/08/04 06:24:15;;;;;;;;;;;;;;;25.07;43.10;99719.34;5115219;28;20012;-80
2022/08/04 06:26:42;;;;;;;;;;;;;;;25.17;42.64;99711.88;5096935;28;19931;-81
2022/08/04 06:29:34;;;;;;;;;;;;;;;25.17;42.44;99718.25;5113729;28;20382;-81
2022/08/04 06:32:12;;;;;;;;;;;;;;;25.24;42.55;99718.53;5126417;27;19971;-81
2022/08/04 06:35:03;;;;;;;;;;;;;;;25.33;42.22;99715.00;5131203;28;19927;-78
2022/08/04 06:37:30;;;;;;;;;;;;;;;25.49;41.99;99718.88;5131241;28;20029;-80
2022/08/04 06:40:13;;;;;;;;;;;;;;;25.54;41.39;99728.94;5131928;28;19936;-80
2022/08/04 06:43:02;;;;;;;;;;;;;;;25.66;40.77;99726.34;5128149;27;19934;-81
2022/08/04 06:45:30;;;;;;;;;;;;;;;25.62;40.72;99722.59;5113937;28;20023;-82
2022/08/04 06:47:57;;;;;;;;;;;;;;;25.67;40.59;99725.19;5113909;28;20343;-83
2022/08/04 06:50:24;;;;;;;;;;;;;;;25.77;40.53;99727.59;5132249;27;19962;-81
2022/08/04 06:53:11;;;;;;;;;;;;;;;25.93;40.70;99727.94;5124175;27;20270;-80
2022/08/04 06:55:38;;;;;;;;;;;;;;;26.06;40.49;99734.41;5153904;27;19930;-83
2022/08/04 06:58:05;;;;;;;;;;;;;;;26.17;39.62;99721.81;5120312;27;20335;-81
2022/08/04 07:00:32;;;;;;;;;;;;;;;26.38;39.62;99721.88;5116973;27;20351;-80
2022/08/04 07:02:59;;;;;;;;;;;;;;;26.44;38.83;99722.53;5117520;27;20266;-80
2022/08/04 07:05:25;;;;;;;;;;;;;;;26.59;38.26;99722.00;5116539;27;20429;-81
2022/08/04 07:08:09;;;;;;;;;;;;;;;26.69;38.09;99724.38;5094231;27;19961;-82
2022/08/04 07:10:39;;;;;;;;;;;;;;;26.69;37.57;99716.06;5116893;27;19942;-82
2022/08/04 07:13:06;;;;;;;;;;;;;;;26.82;37.83;99718.94;5117010;27;19934;-80
2022/08/04 07:15:33;;;;;;;;;;;;;;;26.87;37.76;99718.72;5117007;27;19927;-81
2022/08/04 07:18:03;;;;;;;;;;;;;;;26.86;37.15;99706.81;5135151;27;19927;-79
2022/08/04 07:20:31;;;;;;;;;;;;;;;26.83;36.56;99715.00;5135345;27;19935;-82
2022/08/04 07:23:03;;;;;;;;;;;;;;;26.83;36.04;99709.47;5117837;27;19927;-82
2022/08/04 07:25:30;;;;;;;;;;;;;;;26.89;35.37;99713.66;5134284;27;19982;-81
2022/08/04 07:28:20;;;;;;;;;;;;;;;27.03;35.48;99703.13;5134990;27;19928;-82
2022/08/04 07:30:49;;;;;;;;;;;;;;;27.12;35.30;99703.03;5134707;27;20025;-81
2022/08/04 07:33:16;;;;;;;;;;;;;;;27.21;34.88;99712.94;5134919;27;19927;-82
2022/08/04 07:35:43;;;;;;;;;;;;;;;27.36;34.97;99699.63;5134700;27;19928;-81
2022/08/04 07:38:30;;;;;;;;;;;;;;;27.31;34.65;99708.16;5134681;27;19972;-81
2022/08/04 07:41:11;;;;;;;;;;;;;;;27.34;34.89;99711.03;5118117;27;19931;-80
2022/08/04 07:43:58;;;;;;;;;;;;;;;27.41;34.73;99707.72;5134463;27;19931;-80
2022/08/04 07:46:25;;;;;;;;;;;;;;;27.54;34.42;99700.25;5116036;27;20025;-81
2022/08/04 07:48:58;;;;;;;;;;;;;;;27.64;33.70;99708.97;5117096;27;20301;-81
2022/08/04 07:51:24;;;;;;;;;;;;;;;27.73;33.46;99705.31;5115877;27;19927;-81
2022/08/04 07:53:51;;;;;;;;;;;;;;;27.74;33.14;99718.00;5134560;27;19959;-82
2022/08/04 07:56:22;;;;;;;;;;;;;;;27.73;32.93;99711.66;5116401;27;19928;-81
2022/08/04 07:58:49;;;;;;;;;;;;;;;27.80;33.03;99708.31;5134530;27;20332;-81
2022/08/04 08:01:17;;;;;;;;;;;;;;;27.73;32.29;99708.09;5133690;27;19934;-82
2022/08/04 08:03:47;;;;;;;;;;;;;;;27.78;32.47;99711.44;5134293;27;19932;-80
2022/08/04 08:06:16;;;;;;;;;;;;;;;27.84;32.53;99709.28;5099169;27;20017;-81
2022/08/04 08:09:00;;;;;;;;;;;;;;;27.91;32.85;99712.31;5115285;27;19927;-79
2022/08/04 08:11:39;;;;;;;;;;;;;;;28.00;32.43;99701.91;5133917;27;19935;-82
2022/08/04 08:14:26;;;;;;;;;;;;;;;28.20;32.35;99710.50;5133437;27;19927;-81
2022/08/04 08:16:54;;;;;;;;;;;;;;;28.57;32.56;99697.47;5098790;27;19957;-81
2022/08/04 08:19:22;;;;;;;;;;;;;;;28.84;32.26;99704.25;5133693;27;19936;-81
2022/08/04 08:21:50;;;;;;;;;;;;;;;29.02;32.18;99701.19;5133989;27;19927;-82
2022/08/04 08:24:32;;;;;;;;;;;;;;;29.30;31.57;99707.63;5132371;27;20029;-82
2022/08/04 08:27:05;;;;;;;;;;;;;;;29.64;31.78;99705.38;5134090;27;19927;-81
2022/08/04 08:29:33;;;;;;;;;;;;;;;29.83;31.18;99703.91;5133699;27;19931;-81
2022/08/04 08:32:01;;;;;;;;;;;;;;;29.66;31.07;99711.44;5133770;27;20058;-81
2022/08/04 08:34:34;;;;;;;;;;;;;;;29.77;31.22;99698.59;5133186;27;20309;-80
2022/08/04 08:37:01;;;;;;;;;;;;;;;29.96;31.15;99703.50;5115466;27;19927;-82
2022/08/04 08:39:29;;;;;;;;;;;;;;;29.97;30.98;99702.31;5133180;27;19931;-81
2022/08/04 08:41:58;;;;;;;;;;;;;;;29.69;31.42;99701.56;5133121;27;19927;-81
2022/08/04 08:44:47;;;;;;;;;;;;;;;29.57;31.66;99711.56;5133065;27;19938;-82
2022/08/04 08:47:28;;;;;;;;;;;;;;;30.36;30.97;99715.63;5115414;27;19928;-81
2022/08/04 08:50:17;;;;;;;;;;;;;;;30.92;30.14;99711.78;5133396;27;20370;-81
2022/08/04 08:53:05;;;;;;;;;;;;;;;31.29;29.81;99707.41;5115109;27;19972;-81
2022/08/04 08:55:35;;;;;;;;;;;;;;;31.67;29.00;99707.78;5114649;27;19927;-81
2022/08/04 08:58:02;;;;;;;;;;;;;;;31.76;28.82;99711.13;5133364;27;19966;-81
2022/08/04 09:00:35;;;;;;;;;;;;;;;32.20;28.52;99702.34;5132723;27;20408;-82
2022/08/04 09:03:10;;;;;;;;;;;;;;;32.71;28.22;99699.19;5132890;27;19955;-81
2022/08/04 09:06:10;;;;;;;;;;;;;;;32.89;28.16;99701.44;5114661;27;20070;-81
2022/08/04 09:08:55;;;;;;;;;;;;;;;33.09;27.37;99705.72;5069096;28;19929;-81
2022/08/04 09:11:23;;;;;;;;;;;;;;;33.41;27.37;99705.31;5069245;28;19940;-80
2022/08/04 09:14:09;;;;;;;;;;;;;;;33.22;27.47;99701.50;5036281;28;19980;-82
2022/08/04 09:16:42;;;;;;;;;;;;;;;33.61;27.59;99701.19;5053142;28;19939;-81
2022/08/04 09:19:11;;;;;;;;;;;;;;;33.98;26.96;99700.38;5052824;28;20257;-81
2022/08/04 09:22:01;;;;;;;;;;;;;;;33.89;26.69;99706.25;5069171;28;20373;-82
2022/08/04 09:24:48;;;;;;;;;;;;;;;34.04;26.54;99707.19;5068747;28;20021;-82
2022/08/04 09:27:19;;;;;;;;;;;;;;;33.97;26.66;99703.53;5069330;28;20452;-82
2022/08/04 09:29:56;;;;;;;;;;;;;;;33.57;26.88;99705.91;5069526;28;19952;-82
2022/08/04 09:32:40;;;;;;;;;;;;;;;33.69;26.98;99699.25;5068820;28;19936;-81
2022/08/04 09:35:24;;;;;;;;;;;;;;;33.83;27.04;99696.63;5069021;28;20035;-81
2022/08/04 09:38:02;;;;;;;;;;;;;;;34.37;26.79;99696.31;5052375;28;19929;-81
2022/08/04 09:40:33;;;;;;;;;;;;;;;34.69;26.22;99690.94;5068791;28;20316;-81
2022/08/04 09:43:31;;;;;;;;;;;;;;;35.35;25.77;99688.88;5062457;27;19928;-81
2022/08/04 09:46:36;;;;;;;;;;;;;;;34.40;26.67;99692.72;5103619;28;20026;-81
2022/08/04 09:49:15;;;;;;;;;;;;;;;33.00;28.58;99688.41;5132515;27;20021;-82
2022/08/04 09:51:52;;;;;;;;;;;;;;;32.51;29.23;99692.09;5097019;28;19931;-82
2022/08/04 09:54:46;;;;;;;;;;;;;;;33.45;27.58;99681.00;5114862;28;19927;-81
2022/08/04 09:57:16;;;;;;;;;;;;;;;34.22;25.99;99695.38;5132517;28;19958;-81
2022/08/04 09:59:46;;;;;;;;;;;;;;;35.02;25.41;99680.69;5132634;28;19927;-81
2022/08/04 10:02:14;;;;;;;;;;;;;;;35.85;24.86;99687.41;5132356;28;19995;-81
2022/08/04 10:04:43;;;;;;;;;;;;;;;36.00;23.94;99687.00;5114400;28;20347;-81
2022/08/04 10:07:16;;;;;;;;;;;;;;;36.39;23.50;99696.69;5131994;28;19955;-82
2022/08/04 10:09:47;;;;;;;;;;;;;;;36.44;23.84;99685.03;5113733;28;20409;-82
2022/08/04 10:12:28;;;;;;;;;;;;;;;36.96;23.51;99688.13;5132092;28;19941;-81
2022/08/04 10:15:14;;;;;;;;;;;;;;;37.22;23.34;99700.94;5113902;28;19927;-80
2022/08/04 10:17:53;;;;;;;;;;;;;;;37.11;23.80;99696.56;5113491;28;19927;-80
2022/08/04 10:20:40;;;;;;;;;;;;;;;37.51;23.55;99692.38;5132422;28;19927;-81
2022/08/04 10:23:14;;;;;;;;;;;;;;;37.60;23.95;99689.09;5113077;28;19934;-81
2022/08/04 10:25:44;;;;;;;;;;;;;;;37.50;24.11;99693.53;5134714;27;19957;-80
2022/08/04 10:28:33;;;;;;;;;;;;;;;37.86;23.10;99680.06;5120804;27;19949;-81
2022/08/04 10:31:06;;;;;;;;;;;;;;;36.79;24.41;99697.41;5136170;27;19928;-81
2022/08/04 10:34:10;;;;;;;;;;;;;;;36.42;24.62;99693.06;5117573;27;20033;-81
2022/08/04 10:36:44;;;;;;;;;;;;;;;36.11;24.84;99691.84;5071879;28;19929;-81
2022/08/04 10:39:17;;;;;;;;;;;;;;;36.24;24.18;99696.69;5056128;28;19969;-81
2022/08/04 10:42:08;;;;;;;;;;;;;;;36.50;23.61;99700.25;5058936;28;20296;-80
2022/08/04 10:44:35;;;;;;;;;;;;;;;36.83;23.71;99696.22;5071975;28;20047;-81
2022/08/04 10:47:10;;;;;;;;;;;;;;;36.79;24.01;99700.22;5071925;28;19987;-81
2022/08/04 10:49:44;;;;;;;;;;;;;;;36.26;24.13;99698.28;5055505;28;19928;-81
2022/08/04 10:52:32;;;;;;;;;;;;;;;35.67;24.89;99693.00;5071983;28;20018;-80
2022/08/04 10:55:18;;;;;;;;;;;;;;;35.39;25.49;99694.50;5038767;28;19974;-81
2022/08/04 10:57:47;;;;;;;;;;;;;;;35.28;25.69;99693.66;5055272;28;19928;-80
2022/08/04 11:00:18;;;;;;;;;;;;;;;34.77;26.50;99705.78;5055557;28;19933;-81
2022/08/04 11:02:49;;;;;;;;;;;;;;;34.06;27.17;99702.03;5055367;28;19932;-81
2022/08/04 11:05:18;;;;;;;;;;;;;;;33.52;27.56;99692.25;5055220;28;19952;-80
2022/08/04 11:07:47;;;;;;;;;;;;;;;33.37;27.84;99696.91;5055196;28;19935;-80
2022/08/04 11:10:13;;;;;;;;;;;;;;;33.49;27.83;99701.41;5092474;27;20030;-80
2022/08/04 11:12:41;;;;;;;;;;;;;;;33.89;27.41;99705.47;5134997;27;20350;-82
2022/08/04 11:15:13;;;;;;;;;;;;;;;34.08;27.53;99702.47;5116908;27;20382;-81
2022/08/04 11:17:55;;;;;;;;;;;;;;;34.04;28.04;99707.19;5117881;27;19972;-81
2022/08/04 11:20:29;;;;;;;;;;;;;;;33.39;28.73;99713.28;5117136;27;20374;-81
2022/08/04 11:23:06;;;;;;;;;;;;;;;32.95;29.24;99713.91;5135241;27;20413;-82
2022/08/04 11:25:56;;;;;;;;;;;;;;;32.50;29.67;99704.47;5116147;27;19927;-81
2022/08/04 11:28:33;;;;;;;;;;;;;;;32.04;30.68;99707.28;5111227;27;19927;-80
2022/08/04 11:31:05;;;;;;;;;;;;;;;31.82;30.68;99712.44;5134948;27;19927;-81
2022/08/04 11:33:41;;;;;;;;;;;;;;;32.03;30.58;99709.28;5134541;27;20386;-81
2022/08/04 11:36:08;;;;;;;;;;;;;;;31.83;31.35;99707.66;5115800;27;19935;-81
2022/08/04 11:38:36;;;;;;;;;;;;;;;31.90;31.45;99707.78;5134747;27;19935;-81
2022/08/04 11:41:05;;;;;;;;;;;;;;;31.80;31.23;99703.63;5116630;27;20000;-81
2022/08/04 11:43:38;;;;;;;;;;;;;;;31.85;31.31;99708.91;5099286;27;20398;-81
2022/08/04 11:46:43;;;;;;;;;;;;;;;31.80;31.59;99697.25;5134019;27;19927;-81
2022/08/04 11:49:10;;;;;;;;;;;;;;;31.95;31.38;99701.94;5115916;27;19972;-81
2022/08/04 11:51:37;;;;;;;;;;;;;;;31.80;31.59;99700.81;5134038;27;19935;-81
2022/08/04 11:54:04;;;;;;;;;;;;;;;31.71;31.77;99695.50;5116338;27;19927;-82
2022/08/04 11:56:34;;;;;;;;;;;;;;;32.10;30.34;99691.81;5115874;27;19928;-80
2022/08/04 11:59:06;;;;;;;;;;;;;;;32.78;29.72;99696.50;5134353;27;19932;-81
2022/08/04 12:01:34;;;;;;;;;;;;;;;33.82;28.44;99689.38;5115916;27;19927;-81
2022/08/04 12:04:02;;;;;;;;;;;;;;;34.36;27.33;99691.88;5115636;27;19958;-81
2022/08/04 12:06:36;;;;;;;;;;;;;;;35.04;26.60;99684.69;5133648;27;19927;-81
2022/08/04 12:09:44;;;;;;;;;;;;;;;35.57;25.52;99686.91;5134239;27;19928;-80
2022/08/04 12:12:20;;;;;;;;;;;;;;;36.45;24.63;99692.25;5134069;27;19997;-81
2022/08/04 12:14:55;;;;;;;;;;;;;;;37.50;23.56;99673.81;5115358;27;19927;-81
2022/08/04 12:17:24;;;;;;;;;;;;;;;37.95;23.39;99676.75;5115899;27;19935;-81
2022/08/04 12:20:06;;;;;;;;;;;;;;;38.41;22.56;99672.75;5116880;27;20393;-80
2022/08/04 12:22:54;;;;;;;;;;;;;;;38.27;22.35;99675.72;5134142;27;19965;-80
2022/08/04 12:25:25;;;;;;;;;;;;;;;37.97;22.83;99671.53;5133776;27;20027;-80
2022/08/04 12:28:01;;;;;;;;;;;;;;;38.62;22.43;99666.16;5115827;27;19959;-80
2022/08/04 12:30:29;;;;;;;;;;;;;;;39.62;21.50;99664.09;5098079;27;20389;-81
2022/08/04 12:33:39;;;;;;;;;;;;;;;39.86;21.43;99665.75;5133553;27;19928;-82
2022/08/04 12:36:26;;;;;;;;;;;;;;;39.34;21.16;99654.03;5133187;27;19988;-81
2022/08/04 12:39:05;;;;;;;;;;;;;;;39.81;21.35;99659.81;5133618;27;19933;-82
2022/08/04 12:41:33;;;;;;;;;;;;;;;40.14;20.77;99660.06;5119234;27;20182;-78
2022/08/04 12:44:06;;;;;;;;;;;;;;;39.67;21.56;99655.94;5126886;27;20324;-79
2022/08/04 12:46:53;;;;;;;;;;;;;;;39.96;21.37;99661.16;5133538;27;19931;-82
2022/08/04 12:49:41;;;;;;;;;;;;;;;39.77;20.99;99654.16;5117727;27;19927;-81
2022/08/04 12:52:13;;;;;;;;;;;;;;;39.09;21.78;99649.47;5120361;27;19927;-79
2022/08/04 12:55:00;;;;;;;;;;;;;;;39.22;21.49;99663.81;5118439;27;19927;-81
2022/08/04 12:57:28;;;;;;;;;;;;;;;39.92;20.54;99665.28;5142586;27;20357;-80
2022/08/04 12:59:56;;;;;;;;;;;;;;;40.24;20.45;99653.47;5142251;27;19927;-81
2022/08/04 13:02:28;;;;;;;;;;;;;;;40.50;20.67;99652.53;5143137;27;20313;-80
2022/08/04 13:04:58;;;;;;;;;;;;;;;40.72;20.01;99655.78;5109695;27;19958;-81
2022/08/04 13:07:35;;;;;;;;;;;;;;;40.18;20.62;99649.47;5153624;27;19931;-80
2022/08/04 13:10:14;;;;;;;;;;;;;;;40.02;20.87;99648.13;5136677;27;19931;-80
2022/08/04 13:12:51;;;;;;;;;;;;;;;40.79;20.60;99654.03;5141178;27;19927;-80
2022/08/04 13:15:22;;;;;;;;;;;;;;;40.96;20.27;99655.72;5122354;27;19931;-81
2022/08/04 13:17:54;;;;;;;;;;;;;;;41.14;20.13;99649.69;5114170;27;20382;-82
2022/08/04 13:20:25;;;;;;;;;;;;;;;41.54;19.62;99647.59;5098007;27;20336;-82
2022/08/04 13:23:06;;;;;;;;;;;;;;;41.99;19.79;99649.75;5135496;27;19928;-81
2022/08/04 13:25:53;;;;;;;;;;;;;;;41.68;19.40;99649.31;5139877;27;20465;-80
2022/08/04 13:28:44;;;;;;;;;;;;;;;41.38;19.45;99647.56;5125000;27;19962;-81
2022/08/04 13:31:17;;;;;;;;;;;;;;;41.19;19.65;99649.19;5133046;27;19970;-80
2022/08/04 13:33:46;;;;;;;;;;;;;;;40.90;20.20;99643.31;5124796;27;19969;-81